Terminal Aerodrome Forecast
Issued by NWS Grand Forks, ND

Home | Current Version | Previous Version | Text Only | Print | Product List | Glossary Off
Versions: 1 2 3 4 5 6 7 8 9 10 11 12 13 14 15 16 17 18 19 20 21 22

699
FTUS43 KFGF 132321
TAFGFK
TAF
KGFK 132321Z 1400/1424 09010KT P6SM SCT090
     FM140300 VRB06KT P6SM FEW200
     FM141500 05006KT P6SM SCT040=

USA.gov is the U.S. government's official web portal to all federal, state and local government web resources and services.